createdAt,value
2022-08-01T00:00:30.394Z,4.58
2022-08-01T00:03:01.206Z,4.85
2022-08-01T00:05:32.001Z,4.90
2022-08-01T00:08:02.676Z,5.50
2022-08-01T00:10:33.202Z,4.78
2022-08-01T00:13:05.372Z,5.10
2022-08-01T00:15:35.950Z,4.97
2022-08-01T00:18:06.620Z,5.17
2022-08-01T00:20:37.617Z,5.03
2022-08-01T00:23:08.161Z,5.22
2022-08-01T00:25:38.662Z,6.00
2022-08-01T00:28:09.666Z,5.35
2022-08-01T00:30:40.179Z,5.47
2022-08-01T00:33:10.704Z,5.47
2022-08-01T00:35:41.234Z,5.47
2022-08-01T00:38:12.164Z,5.65
2022-08-01T00:40:42.647Z,4.95
2022-08-01T00:43:13.169Z,5.53
2022-08-01T00:45:44.350Z,6.17
2022-08-01T00:48:15.044Z,5.87
2022-08-01T00:50:46.043Z,4.90
2022-08-01T00:53:18.656Z,5.95
2022-08-01T00:55:50.144Z,6.08
2022-08-01T00:58:21.401Z,5.53
2022-08-01T01:00:55.227Z,6.15
2022-08-01T01:06:16.683Z,5.58
2022-08-01T01:08:55.721Z,5.62
2022-08-01T01:11:31.935Z,5.92
2022-08-01T01:14:08.184Z,6.20
2022-08-01T01:16:41.573Z,5.60
2022-08-01T01:19:15.022Z,5.97
2022-08-01T01:22:00.772Z,6.12
2022-08-01T01:25:01.672Z,5.87
2022-08-01T01:27:54.826Z,6.08
2022-08-01T01:30:29.523Z,5.85
2022-08-01T01:33:05.342Z,5.30
2022-08-01T01:35:38.857Z,5.90
2022-08-01T01:38:15.154Z,5.53
2022-08-01T01:40:47.097Z,5.87
2022-08-01T01:43:19.829Z,6.17
2022-08-01T01:45:51.024Z,5.50
2022-08-01T01:48:24.773Z,5.60
2022-08-01T01:50:57.818Z,5.90
2022-08-01T01:53:30.574Z,6.03
2022-08-01T01:56:02.674Z,5.70
2022-08-01T01:58:35.835Z,5.55
2022-08-01T02:01:14.269Z,5.72
2022-08-01T02:03:42.635Z,6.05
2022-08-01T02:06:15.550Z,6.35
2022-08-01T02:08:47.507Z,6.17
2022-08-01T02:11:21.663Z,6.20
2022-08-01T02:14:04.119Z,6.08
2022-08-01T02:16:37.318Z,5.97
2022-08-01T02:19:08.098Z,6.35
2022-08-01T02:21:44.285Z,6.53
2022-08-01T02:24:20.639Z,6.65
2022-08-01T02:26:55.793Z,6.00
2022-08-01T02:29:29.330Z,6.50
2022-08-01T02:32:01.667Z,6.60
2022-08-01T02:34:33.463Z,6.50
2022-08-01T02:37:07.481Z,6.55
2022-08-01T02:39:39.626Z,6.12
2022-08-01T02:42:12.711Z,6.53
2022-08-01T02:44:45.076Z,5.97
2022-08-01T02:47:17.145Z,6.42
2022-08-01T02:49:53.483Z,6.25
2022-08-01T02:52:24.432Z,6.37
2022-08-01T02:54:57.279Z,6.53
2022-08-01T02:57:37.660Z,6.05
2022-08-01T03:00:01.770Z,6.47
2022-08-01T03:02:34.202Z,6.30
2022-08-01T03:05:05.586Z,6.60
2022-08-01T03:07:40.495Z,6.80
2022-08-01T03:10:09.989Z,6.47
2022-08-01T03:12:42.015Z,6.33
2022-08-01T03:15:13.859Z,6.33
2022-08-01T03:17:47.318Z,6.62
2022-08-01T03:20:19.929Z,7.50
2022-08-01T03:22:53.746Z,6.60
2022-08-01T03:25:25.800Z,7.25
2022-08-01T03:27:59.349Z,6.70
2022-08-01T03:30:31.568Z,7.12
2022-08-01T03:33:02.839Z,7.28
2022-08-01T03:35:42.263Z,7.05
2022-08-01T03:38:16.695Z,6.35
2022-08-01T03:40:53.184Z,6.58
2022-08-01T03:43:32.905Z,6.83
2022-08-01T03:46:08.659Z,6.67
2022-08-01T03:48:45.264Z,6.70
2022-08-01T03:51:17.288Z,5.72
2022-08-01T03:53:50.497Z,6.62
2022-08-01T03:56:22.723Z,6.40
2022-08-01T03:58:54.570Z,6.05
2022-08-01T04:01:25.541Z,6.47
2022-08-01T04:03:56.361Z,6.22
2022-08-01T04:06:27.091Z,6.53
2022-08-01T04:08:58.080Z,6.60
2022-08-01T04:11:30.119Z,7.45
2022-08-01T04:14:00.652Z,7.55
2022-08-01T04:16:31.202Z,6.90
2022-08-01T04:19:02.184Z,7.55
2022-08-01T04:21:34.231Z,8.23
2022-08-01T04:24:07.737Z,8.53
2022-08-01T04:26:47.996Z,9.25
2022-08-01T04:29:15.202Z,8.38
2022-08-01T04:31:48.255Z,8.73
2022-08-01T04:34:22.172Z,8.73
2022-08-01T04:36:55.063Z,8.45
2022-08-01T04:39:31.879Z,9.18
2022-08-01T04:42:04.947Z,8.43
2022-08-01T04:44:36.138Z,8.88
2022-08-01T04:47:08.855Z,9.55
2022-08-01T04:49:48.576Z,9.48
2022-08-01T04:52:16.861Z,9.73
2022-08-01T04:54:44.167Z,10.28
2022-08-01T04:57:15.875Z,10.50
2022-08-01T04:59:47.292Z,10.32
2022-08-01T05:02:19.644Z,10.75
2022-08-01T05:04:50.194Z,10.82
2022-08-01T05:07:20.620Z,11.53
2022-08-01T05:09:51.463Z,10.70
2022-08-01T05:12:23.425Z,10.80
2022-08-01T05:14:54.068Z,10.25
2022-08-01T05:17:24.631Z,9.80
2022-08-01T05:19:55.261Z,10.08
2022-08-01T05:22:26.557Z,9.60
2022-08-01T05:25:00.511Z,9.43
2022-08-01T05:27:31.374Z,9.68
2022-08-01T05:30:03.109Z,9.70
2022-08-01T05:32:35.331Z,9.53
2022-08-01T05:35:07.069Z,9.28
2022-08-01T05:37:37.463Z,8.73
2022-08-01T05:40:08.932Z,9.23
2022-08-01T05:42:39.318Z,8.63
2022-08-01T05:45:10.265Z,9.00
2022-08-01T05:47:42.981Z,8.35
2022-08-01T05:50:13.242Z,7.92
2022-08-01T05:52:43.601Z,7.67
2022-08-01T05:55:14.914Z,7.97
2022-08-01T05:57:45.358Z,7.35
2022-08-01T06:00:17.159Z,7.60
2022-08-01T06:02:47.579Z,7.42
2022-08-01T06:05:19.031Z,7.55
2022-08-01T06:07:49.488Z,7.25
2022-08-01T06:10:19.964Z,7.05
2022-08-01T06:12:50.471Z,7.00
2022-08-01T06:15:20.921Z,6.80
2022-08-01T06:17:52.549Z,6.80
2022-08-01T06:20:23.388Z,6.75
2022-08-01T06:22:53.761Z,5.65
2022-08-01T06:25:25.505Z,5.90
2022-08-01T06:27:56.094Z,5.70
2022-08-01T06:30:26.723Z,5.22
2022-08-01T06:32:59.201Z,4.97
2022-08-01T06:35:30.790Z,4.37
2022-08-01T06:38:01.607Z,4.92
2022-08-01T06:40:33.745Z,4.40
2022-08-01T06:43:06.150Z,4.70
2022-08-01T06:45:37.640Z,4.80
2022-08-01T06:48:08.245Z,4.20
2022-08-01T06:50:39.106Z,4.28
2022-08-01T06:53:09.546Z,4.47
2022-08-01T06:55:39.975Z,4.15
2022-08-01T06:58:10.406Z,4.10
2022-08-01T07:00:40.991Z,4.00
2022-08-01T07:03:11.408Z,3.85
2022-08-01T07:05:41.861Z,4.17
2022-08-01T07:08:12.443Z,3.80
2022-08-01T07:10:44.184Z,3.72
2022-08-01T07:13:16.003Z,3.95
2022-08-01T07:15:46.396Z,3.87
2022-08-01T07:18:16.888Z,4.12
2022-08-01T07:20:51.169Z,4.20
2022-08-01T07:23:21.883Z,4.50
2022-08-01T07:25:55.879Z,4.50
2022-08-01T07:28:25.704Z,4.62
2022-08-01T07:30:56.155Z,4.42
2022-08-01T07:33:26.768Z,5.03
2022-08-01T07:35:58.940Z,4.65
2022-08-01T07:38:30.532Z,4.25
2022-08-01T07:41:00.979Z,4.37
2022-08-01T07:43:31.491Z,3.83
2022-08-01T07:46:01.890Z,3.08
2022-08-01T07:48:32.730Z,3.62
2022-08-01T07:51:03.199Z,3.45
2022-08-01T07:53:33.864Z,3.98
2022-08-01T07:56:06.036Z,4.15
2022-08-01T07:58:36.819Z,4.35
2022-08-01T08:01:07.382Z,4.60
2022-08-01T08:03:37.813Z,4.37
2022-08-01T08:06:08.370Z,4.72
2022-08-01T08:08:38.729Z,5.30
2022-08-01T08:11:09.739Z,5.42
2022-08-01T08:13:40.244Z,4.60
2022-08-01T08:16:13.027Z,4.60
2022-08-01T08:18:43.627Z,3.95
2022-08-01T08:21:14.082Z,4.10
2022-08-01T08:24:02.801Z,4.20
2022-08-01T08:26:33.268Z,4.20
2022-08-01T08:29:03.715Z,4.25
2022-08-01T08:31:51.324Z,4.42
2022-08-01T08:34:07.654Z,4.45
2022-08-01T08:36:38.765Z,4.53
2022-08-01T08:39:11.248Z,3.90
2022-08-01T08:41:41.824Z,4.05
2022-08-01T08:44:14.398Z,4.10
2022-08-01T08:46:48.799Z,4.42
2022-08-01T08:49:26.656Z,3.45
2022-08-01T08:52:00.307Z,3.70
2022-08-01T08:54:32.756Z,3.22
2022-08-01T08:57:03.659Z,2.90
2022-08-01T08:59:36.387Z,2.60
2022-08-01T09:02:08.207Z,2.33
2022-08-01T09:04:41.130Z,1.90
2022-08-01T09:07:12.650Z,2.00
2022-08-01T09:09:43.975Z,1.80
2022-08-01T09:12:17.607Z,1.80
2022-08-01T09:14:51.128Z,2.02
2022-08-01T09:17:22.269Z,2.15
2022-08-01T09:19:59.070Z,2.40
2022-08-01T09:22:32.723Z,2.00
2022-08-01T09:25:09.577Z,2.42
2022-08-01T09:27:44.045Z,2.20
2022-08-01T09:30:19.561Z,2.10
2022-08-01T09:33:11.547Z,2.40
2022-08-01T09:35:43.888Z,2.30
2022-08-01T09:38:24.643Z,2.40
2022-08-01T09:40:59.010Z,2.80
2022-08-01T09:43:32.681Z,2.80
2022-08-01T09:46:12.546Z,2.87
2022-08-01T09:48:42.739Z,2.75
2022-08-01T09:51:58.405Z,3.08
2022-08-01T09:53:53.409Z,2.70
2022-08-01T09:56:25.083Z,3.10
2022-08-01T09:59:01.645Z,3.10
2022-08-01T10:01:48.910Z,2.90
2022-08-01T10:04:25.577Z,2.85
2022-08-01T10:06:59.951Z,2.42
2022-08-01T10:09:39.663Z,3.00
2022-08-01T10:12:07.686Z,2.40
2022-08-01T10:14:41.273Z,2.60
2022-08-01T10:17:18.286Z,2.55
2022-08-01T10:19:47.834Z,2.67
2022-08-01T10:22:19.997Z,2.20
2022-08-01T10:24:51.975Z,2.37
2022-08-01T10:27:24.373Z,2.40
2022-08-01T10:30:19.413Z,2.22
2022-08-01T10:32:42.871Z,2.10
2022-08-01T10:35:17.006Z,2.40
2022-08-01T10:37:52.225Z,2.10
2022-08-01T10:40:31.661Z,2.20
2022-08-01T10:42:56.904Z,2.40
2022-08-01T10:45:30.301Z,2.22
2022-08-01T10:48:06.134Z,2.02
2022-08-01T10:50:40.592Z,2.17
2022-08-01T10:53:31.868Z,2.00
2022-08-01T10:56:03.190Z,1.87
2022-08-01T10:58:42.744Z,2.10
2022-08-01T11:01:27.845Z,1.98
2022-08-01T11:04:05.575Z,2.15
2022-08-01T11:06:57.022Z,1.90
2022-08-01T11:09:36.412Z,2.10
2022-08-01T11:12:13.145Z,1.90
2022-08-01T11:15:05.551Z,1.95
2022-08-01T11:17:43.341Z,1.87
2022-08-01T11:20:17.366Z,2.20
2022-08-01T11:23:04.956Z,2.05
2022-08-01T11:26:04.950Z,1.87
2022-08-01T11:28:32.266Z,2.22
2022-08-01T11:31:14.070Z,1.90
2022-08-01T11:33:50.257Z,2.72
2022-08-01T11:36:36.854Z,2.40
2022-08-01T11:39:13.354Z,2.72
2022-08-01T11:41:41.038Z,3.08
2022-08-01T11:44:20.785Z,2.35
2022-08-01T11:47:08.885Z,4.28
2022-08-01T11:49:48.955Z,1.90
2022-08-01T11:52:27.743Z,2.77
2022-08-01T11:55:01.241Z,2.27
2022-08-01T11:57:35.877Z,4.22
2022-08-01T12:00:16.722Z,2.55
2022-08-01T12:02:48.634Z,2.67
2022-08-01T12:05:24.664Z,3.05
2022-08-01T12:07:56.104Z,2.42
2022-08-01T12:10:31.302Z,3.50
2022-08-01T12:13:04.285Z,1.42
2022-08-01T12:15:37.467Z,1.50
2022-08-01T12:18:09.310Z,1.45
2022-08-01T12:20:56.165Z,1.80
2022-08-01T12:23:17.308Z,2.00
2022-08-01T12:25:50.771Z,1.98
2022-08-01T12:28:21.207Z,3.12
2022-08-01T12:30:52.167Z,2.02
2022-08-01T12:33:23.655Z,2.37
2022-08-01T12:35:54.159Z,1.77
2022-08-01T12:38:25.957Z,1.70
2022-08-01T12:40:57.515Z,1.70
2022-08-01T12:43:29.561Z,2.00
2022-08-01T12:46:02.255Z,2.10
2022-08-01T12:48:33.440Z,1.80
2022-08-01T12:51:05.098Z,1.85
2022-08-01T12:53:40.166Z,1.80
2022-08-01T12:56:12.370Z,1.75
2022-08-01T12:58:42.963Z,1.80
2022-08-01T13:01:14.508Z,1.72
2022-08-01T13:03:48.083Z,1.85
2022-08-01T13:06:18.538Z,1.80
2022-08-01T13:08:48.997Z,1.70
2022-08-01T13:11:20.907Z,1.90
2022-08-01T13:13:54.075Z,1.80
2022-08-01T13:16:43.284Z,1.87
2022-08-01T13:18:59.696Z,1.60
2022-08-01T13:21:52.295Z,1.80
2022-08-01T13:24:11.788Z,1.70
2022-08-01T13:26:47.013Z,1.92
2022-08-01T13:29:23.996Z,5.53
2022-08-01T13:31:54.432Z,1.80
2022-08-01T13:34:34.100Z,2.47
2022-08-01T13:37:04.709Z,1.92
2022-08-01T13:39:41.477Z,2.00
2022-08-01T13:42:19.086Z,1.90
2022-08-01T13:44:47.350Z,2.05
2022-08-01T13:47:17.818Z,2.35
2022-08-01T13:49:48.292Z,2.02
2022-08-01T13:52:18.707Z,1.87
2022-08-01T13:54:49.316Z,1.67
2022-08-01T13:57:22.714Z,1.75
2022-08-01T13:59:53.439Z,1.80
2022-08-01T14:02:24.017Z,1.70
2022-08-01T14:04:56.756Z,1.62
2022-08-01T14:07:27.444Z,1.87
2022-08-01T14:10:05.194Z,1.37
2022-08-01T14:12:32.186Z,1.40
2022-08-01T14:15:03.820Z,1.45
2022-08-01T14:17:37.872Z,1.37
2022-08-01T14:20:08.013Z,1.30
2022-08-01T14:22:40.209Z,1.30
2022-08-01T14:25:11.111Z,1.20
2022-08-01T14:27:43.192Z,1.32
2022-08-01T14:30:14.946Z,1.27
2022-08-01T14:32:46.960Z,1.10
2022-08-01T14:35:18.970Z,1.10
2022-08-01T14:37:51.848Z,1.40
2022-08-01T14:40:23.961Z,1.07
2022-08-01T14:42:54.548Z,1.20
2022-08-01T14:45:25.256Z,1.20
2022-08-01T14:47:55.993Z,1.20
2022-08-01T14:50:29.301Z,1.27
2022-08-01T14:52:59.718Z,1.30
2022-08-01T14:55:30.187Z,1.22
2022-08-01T14:58:00.660Z,1.52
2022-08-01T15:00:32.084Z,1.40
2022-08-01T15:03:03.037Z,1.70
2022-08-01T15:05:33.798Z,2.15
2022-08-01T15:08:06.257Z,2.10
2022-08-01T15:10:36.855Z,1.80
2022-08-01T15:13:07.373Z,2.00
2022-08-01T15:15:37.941Z,1.80
2022-08-01T15:18:08.501Z,1.77
2022-08-01T15:20:38.930Z,1.60
2022-08-01T15:23:10.341Z,1.30
2022-08-01T15:25:42.110Z,1.50
2022-08-01T15:28:13.049Z,1.27
2022-08-01T15:30:44.059Z,1.60
2022-08-01T15:33:14.692Z,1.60
2022-08-01T15:35:46.506Z,1.30
2022-08-01T15:38:18.114Z,1.40
2022-08-01T15:40:48.568Z,1.40
2022-08-01T15:43:20.240Z,1.20
2022-08-01T15:45:51.197Z,1.60
2022-08-01T15:48:21.675Z,1.32
2022-08-01T15:50:52.491Z,1.60
2022-08-01T15:53:22.937Z,1.50
2022-08-01T15:55:53.631Z,1.47
2022-08-01T15:58:25.615Z,1.40
2022-08-01T16:00:56.082Z,1.30
2022-08-01T16:03:27.767Z,1.50
2022-08-01T16:05:58.490Z,1.55
2022-08-01T16:08:29.044Z,1.32
2022-08-01T16:10:59.520Z,1.40
2022-08-01T16:13:30.219Z,1.50
2022-08-01T16:16:02.624Z,1.70
2022-08-01T16:18:33.134Z,1.60
2022-08-01T16:21:03.793Z,1.30
2022-08-01T16:23:34.636Z,1.30
2022-08-01T16:26:05.331Z,1.52
2022-08-01T16:28:37.522Z,1.22
2022-08-01T16:31:37.516Z,2.12
2022-08-01T16:33:54.169Z,1.47
2022-08-01T16:36:17.075Z,1.70
2022-08-01T16:38:45.721Z,1.85
2022-08-01T16:41:20.004Z,1.60
2022-08-01T16:43:53.633Z,1.50
2022-08-01T16:46:23.258Z,1.42
2022-08-01T16:48:54.167Z,1.80
2022-08-01T16:51:25.307Z,1.80
2022-08-01T16:53:57.081Z,1.60
2022-08-01T16:56:27.766Z,1.70
2022-08-01T16:58:58.132Z,1.40
2022-08-01T17:02:00.026Z,1.50
2022-08-01T17:04:01.914Z,1.50
2022-08-01T17:06:32.735Z,1.60
2022-08-01T17:09:04.560Z,1.50
2022-08-01T17:11:35.111Z,1.75
2022-08-01T17:14:06.020Z,1.60
2022-08-01T17:16:36.509Z,1.75
2022-08-01T17:19:10.150Z,1.95
2022-08-01T17:21:41.549Z,2.00
2022-08-01T17:24:14.842Z,1.65
2022-08-01T17:26:44.483Z,1.77
2022-08-01T17:29:16.843Z,1.50
2022-08-01T17:31:47.406Z,1.90
2022-08-01T17:34:17.877Z,1.80
2022-08-01T17:36:48.566Z,1.67
2022-08-01T17:39:23.478Z,1.87
2022-08-01T17:41:51.977Z,1.80
2022-08-01T17:44:23.867Z,1.95
2022-08-01T17:46:54.821Z,1.72
2022-08-01T17:49:52.132Z,1.52
2022-08-01T17:51:58.744Z,2.00
2022-08-01T17:54:29.292Z,1.70
2022-08-01T17:57:00.057Z,1.72
2022-08-01T17:59:31.053Z,1.95
2022-08-01T18:02:02.396Z,2.00
2022-08-01T18:04:34.726Z,1.67
2022-08-01T18:07:06.996Z,2.02
2022-08-01T18:09:45.666Z,1.57
2022-08-01T18:12:11.748Z,1.85
2022-08-01T18:14:44.787Z,1.67
2022-08-01T18:17:17.017Z,1.70
2022-08-01T18:19:47.467Z,1.60
2022-08-01T18:22:32.668Z,1.87
2022-08-01T18:24:50.967Z,1.80
2022-08-01T18:27:21.620Z,1.80
2022-08-01T18:29:52.127Z,1.80
2022-08-01T18:32:22.899Z,2.25
2022-08-01T18:34:53.393Z,1.90
2022-08-01T18:37:23.906Z,2.10
2022-08-01T18:39:55.951Z,2.00
2022-08-01T18:42:27.178Z,1.75
2022-08-01T18:44:57.649Z,1.80
2022-08-01T18:47:28.230Z,1.80
2022-08-01T18:49:58.711Z,1.67
2022-08-01T18:52:31.824Z,1.67
2022-08-01T18:55:01.457Z,1.67
2022-08-01T18:57:32.152Z,1.60
2022-08-01T19:00:02.978Z,1.75
2022-08-01T19:02:33.524Z,1.80
2022-08-01T19:05:04.076Z,2.08
2022-08-01T19:08:04.506Z,1.90
2022-08-01T19:10:07.309Z,1.82
2022-08-01T19:12:37.782Z,1.80
2022-08-01T19:15:08.991Z,2.00
2022-08-01T19:17:40.031Z,1.80
2022-08-01T19:20:10.966Z,2.30
2022-08-01T19:22:41.377Z,1.77
2022-08-01T19:25:13.454Z,2.12
2022-08-01T19:27:46.981Z,1.80
2022-08-01T19:30:19.345Z,1.80
2022-08-01T19:32:50.267Z,1.98
2022-08-01T19:35:20.816Z,2.10
2022-08-01T19:37:54.209Z,2.50
2022-08-01T19:40:26.894Z,2.00
2022-08-01T19:42:58.249Z,2.05
2022-08-01T19:45:30.227Z,1.90
2022-08-01T19:48:01.698Z,2.10
2022-08-01T19:50:33.969Z,2.00
2022-08-01T19:53:05.274Z,2.10
2022-08-01T19:55:39.616Z,2.02
2022-08-01T19:58:29.082Z,2.30
2022-08-01T20:00:47.768Z,2.12
2022-08-01T20:03:19.982Z,2.45
2022-08-01T20:05:52.607Z,2.40
2022-08-01T20:08:24.093Z,2.30
2022-08-01T20:10:55.053Z,2.80
2022-08-01T20:13:26.066Z,2.00
2022-08-01T20:15:58.843Z,2.40
2022-08-01T20:18:29.291Z,2.30
2022-08-01T20:21:01.079Z,2.47
2022-08-01T20:23:34.723Z,1.90
2022-08-01T20:26:06.273Z,1.90
2022-08-01T20:28:41.252Z,2.00
2022-08-01T20:31:12.618Z,1.90
2022-08-01T20:33:46.273Z,1.95
2022-08-01T20:36:25.588Z,2.00
2022-08-01T20:38:49.837Z,1.67
2022-08-01T20:41:24.360Z,1.90
2022-08-01T20:43:56.869Z,1.90
2022-08-01T20:46:29.370Z,2.02
2022-08-01T20:49:00.178Z,1.82
2022-08-01T20:51:31.544Z,1.87
2022-08-01T20:54:03.022Z,2.10
2022-08-01T20:56:45.728Z,2.33
2022-08-01T20:59:39.692Z,2.02
2022-08-01T21:02:05.450Z,2.30
2022-08-01T21:04:44.663Z,2.75
2022-08-01T21:07:25.258Z,3.12
2022-08-01T21:10:05.000Z,3.10
2022-08-01T21:12:54.341Z,3.27
2022-08-01T21:15:37.857Z,3.80
2022-08-01T21:18:16.667Z,3.60
2022-08-01T21:21:08.406Z,2.50
2022-08-01T21:24:09.412Z,2.52
2022-08-01T21:26:43.525Z,2.47
2022-08-01T21:29:17.417Z,2.40
2022-08-01T21:31:55.770Z,2.83
2022-08-01T21:34:28.661Z,2.33
2022-08-01T21:36:59.943Z,2.42
2022-08-01T21:39:30.857Z,2.62
2022-08-01T21:42:05.728Z,2.22
2022-08-01T21:44:35.068Z,2.52
2022-08-01T21:47:06.471Z,2.72
2022-08-01T21:49:38.817Z,2.80
2022-08-01T21:52:17.950Z,3.17
2022-08-01T21:54:54.161Z,3.20
2022-08-01T21:57:41.190Z,2.95
2022-08-01T22:00:21.038Z,2.80
2022-08-01T22:02:54.413Z,2.98
2022-08-01T22:05:50.434Z,2.80
2022-08-01T22:08:03.030Z,2.92
2022-08-01T22:10:35.424Z,2.60
2022-08-01T22:13:07.540Z,3.00
2022-08-01T22:15:44.791Z,2.95
2022-08-01T22:18:10.515Z,2.30
2022-08-01T22:20:41.350Z,2.52
2022-08-01T22:23:12.118Z,2.55
2022-08-01T22:25:43.091Z,2.60
2022-08-01T22:28:19.050Z,2.30
2022-08-01T22:30:52.129Z,2.40
2022-08-01T22:33:22.634Z,2.50
2022-08-01T22:35:57.455Z,2.42
2022-08-01T22:38:27.960Z,2.50
2022-08-01T22:41:13.335Z,2.40
2022-08-01T22:44:04.701Z,2.70
2022-08-01T22:46:42.721Z,2.65
2022-08-01T22:49:19.215Z,2.47
2022-08-01T22:51:54.906Z,2.67
2022-08-01T22:54:30.654Z,2.70
2022-08-01T22:57:05.735Z,2.30
2022-08-01T23:00:01.793Z,2.58
2022-08-01T23:02:34.321Z,2.92
2022-08-01T23:05:08.167Z,2.62
2022-08-01T23:07:44.536Z,2.98
2022-08-01T23:10:15.471Z,3.17
2022-08-01T23:12:46.715Z,3.40
2022-08-01T23:15:18.987Z,3.05
2022-08-01T23:17:51.158Z,3.20
2022-08-01T23:20:22.454Z,3.02
2022-08-01T23:22:55.477Z,3.20
2022-08-01T23:25:28.174Z,3.72
2022-08-01T23:28:05.915Z,3.10
2022-08-01T23:30:34.310Z,2.98
2022-08-01T23:33:05.479Z,2.65
2022-08-01T23:35:38.922Z,3.22
2022-08-01T23:38:10.866Z,3.30
2022-08-01T23:40:41.523Z,3.12
2022-08-01T23:43:16.997Z,3.40
2022-08-01T23:46:02.692Z,3.25
2022-08-01T23:48:17.787Z,3.30
2022-08-01T23:50:49.532Z,3.65
2022-08-01T23:53:20.089Z,3.90
2022-08-01T23:55:51.411Z,2.87
2022-08-01T23:58:23.442Z,3.10
